createdAt,value
2017-03-22T00:04:27.734Z,72.3
2017-03-22T00:14:39.413Z,71.6
2017-03-22T00:24:51.108Z,71.4
2017-03-22T00:35:02.800Z,71.7
2017-03-22T00:45:14.488Z,71.8
2017-03-22T00:55:26.151Z,74.2
2017-03-22T01:05:37.801Z,73.3
2017-03-22T01:15:49.541Z,74.8
2017-03-22T01:26:01.314Z,73.7
2017-03-22T01:36:13.114Z,75
2017-03-22T01:46:24.924Z,75.1
2017-03-22T01:56:36.774Z,74.7
2017-03-22T02:06:48.601Z,76.7
2017-03-22T02:17:00.457Z,76.6
2017-03-22T02:27:12.339Z,75.4
2017-03-22T02:37:24.220Z,74.9
2017-03-22T02:47:36.047Z,76.5
2017-03-22T02:57:47.869Z,76.6
2017-03-22T03:07:59.788Z,76.8
2017-03-22T03:18:11.668Z,77.9
2017-03-22T03:28:23.540Z,80.2
2017-03-22T03:38:35.457Z,79.9
2017-03-22T03:48:47.377Z,80.9
2017-03-22T03:58:59.337Z,80.6
2017-03-22T04:09:11.309Z,81.7
2017-03-22T04:19:23.290Z,82.5
2017-03-22T04:29:35.261Z,83
2017-03-22T04:39:47.261Z,84.5
2017-03-22T04:49:59.245Z,85
2017-03-22T05:00:11.195Z,86.1
2017-03-22T05:10:23.212Z,87.3
2017-03-22T05:20:35.233Z,87.2
2017-03-22T05:30:47.192Z,88.5
2017-03-22T05:40:59.164Z,89.6
2017-03-22T05:51:11.167Z,88.9
2017-03-22T06:01:23.129Z,90.9
2017-03-22T06:11:34.957Z,91.1
2017-03-22T06:21:46.615Z,90.7
2017-03-22T06:31:58.105Z,89
2017-03-22T06:42:09.430Z,89.3
2017-03-22T06:52:20.644Z,87.3
2017-03-22T07:02:31.714Z,83.3
2017-03-22T07:12:42.602Z,81.4
2017-03-22T07:22:53.243Z,80.3
2017-03-22T07:33:03.638Z,76.2
2017-03-22T07:43:13.831Z,72.5
2017-03-22T07:53:23.839Z,69
2017-03-22T08:03:33.650Z,66.3
2017-03-22T08:13:43.310Z,59.3
2017-03-22T08:23:52.846Z,58.6
2017-03-22T08:34:02.257Z,58.7
2017-03-22T08:44:11.549Z,52.8
2017-03-22T08:54:20.740Z,49.3
2017-03-22T09:04:29.937Z,49.7
2017-03-22T09:14:39.111Z,55.7
2017-03-22T09:24:48.300Z,51.1
2017-03-22T09:34:57.477Z,51.5
2017-03-22T09:45:06.638Z,52.4
2017-03-22T09:55:15.864Z,45.8
2017-03-22T10:05:25.081Z,42.4
2017-03-22T10:15:34.264Z,38.5
2017-03-22T10:25:43.405Z,38.9
2017-03-22T10:35:52.428Z,38.5
2017-03-22T10:46:01.484Z,38.6
2017-03-22T10:56:10.493Z,40.9
2017-03-22T11:06:19.514Z,39.8
2017-03-22T11:26:37.641Z,38.1
2017-03-22T11:36:46.578Z,38.7
2017-03-22T11:46:55.554Z,44.6
2017-03-22T11:57:04.806Z,45
2017-03-22T12:07:14.244Z,50.1
2017-03-22T12:17:23.753Z,51.4
2017-03-22T12:27:33.374Z,52.8
2017-03-22T12:37:42.993Z,52.1
2017-03-22T12:47:52.446Z,52.5
2017-03-22T12:58:01.737Z,51.5
2017-03-22T13:08:11.039Z,51.9
2017-03-22T13:18:20.327Z,51.7
2017-03-22T13:28:29.556Z,50.6
2017-03-22T13:38:38.832Z,50.2
2017-03-22T13:48:47.919Z,50
2017-03-22T13:58:56.881Z,51.1
2017-03-22T14:09:05.927Z,52.6
2017-03-22T14:19:15.022Z,51.3
2017-03-22T14:29:24.246Z,50.6
2017-03-22T14:39:33.742Z,50
2017-03-22T14:49:43.334Z,48.5
2017-03-22T14:59:53.060Z,49.8
2017-03-22T15:10:02.880Z,49
2017-03-22T15:20:12.797Z,49
2017-03-22T15:30:22.578Z,47.7
2017-03-22T15:40:32.300Z,45.6
2017-03-22T15:50:42.108Z,45
2017-03-22T16:00:52.032Z,43.3
2017-03-22T16:11:02.084Z,43.7
2017-03-22T16:21:12.224Z,42.4
2017-03-22T16:31:22.402Z,42.2
2017-03-22T16:41:32.632Z,39.7
2017-03-22T16:51:42.839Z,39.8
2017-03-22T17:01:53.116Z,42
2017-03-22T17:12:03.432Z,43.1
2017-03-22T17:22:13.803Z,44.5
2017-03-22T17:32:24.204Z,44.8
2017-03-22T17:42:34.644Z,45.5
2017-03-22T17:52:45.157Z,46.1
2017-03-22T18:02:55.716Z,46.8
2017-03-22T18:13:06.309Z,47.6
2017-03-22T18:23:16.968Z,47.8
2017-03-22T18:33:27.645Z,48.8
2017-03-22T18:43:38.336Z,49.7
2017-03-22T18:53:49.072Z,49.6
2017-03-22T19:03:59.828Z,50.2
2017-03-22T19:14:10.599Z,50.6
2017-03-22T19:24:21.470Z,51.5
2017-03-22T19:34:32.332Z,50.7
2017-03-22T19:44:43.161Z,51.6
2017-03-22T19:54:54.030Z,51.4
2017-03-22T20:05:04.899Z,51.4
2017-03-22T20:15:15.806Z,51.5
2017-03-22T20:25:26.669Z,52.1
2017-03-22T20:35:37.619Z,53
2017-03-22T20:45:48.626Z,54
2017-03-22T20:55:59.673Z,54.4
2017-03-22T21:06:10.751Z,55.7
2017-03-22T21:16:21.806Z,56.1
2017-03-22T21:26:32.932Z,57.2
2017-03-22T21:36:44.089Z,57.8
2017-03-22T21:46:55.309Z,58.8
2017-03-22T21:57:06.480Z,60
2017-03-22T22:07:17.720Z,60.8
2017-03-22T22:17:28.971Z,61.9
2017-03-22T22:27:40.179Z,63.1
2017-03-22T22:37:51.339Z,64.7
2017-03-22T22:48:02.489Z,65.9
2017-03-22T22:58:13.649Z,67.2
2017-03-22T23:08:24.807Z,67.8
2017-03-22T23:18:36.090Z,69
2017-03-22T23:28:47.264Z,69.3
2017-03-22T23:38:58.367Z,70
2017-03-22T23:49:09.506Z,71.1
2017-03-22T23:59:20.721Z,71.4
